createdAt,value
2023-04-05T00:01:16.756Z,99326.30
2023-04-05T00:04:35.587Z,99327.98
2023-04-05T00:07:53.907Z,99318.59
2023-04-05T00:11:10.201Z,99311.78
2023-04-05T00:14:26.544Z,99303.14
2023-04-05T00:17:43.142Z,99297.94
2023-04-05T00:21:00.712Z,99295.23
2023-04-05T00:24:18.309Z,99291.16
2023-04-05T00:27:35.038Z,99286.22
2023-04-05T00:30:51.335Z,99281.94
2023-04-05T00:34:10.146Z,99289.39
2023-04-05T00:37:26.548Z,99283.44
2023-04-05T00:40:43.985Z,99287.89
2023-04-05T00:44:00.862Z,99286.96
2023-04-05T00:47:17.590Z,99277.02
2023-04-05T00:50:35.451Z,99283.08
2023-04-05T00:53:53.854Z,99277.88
2023-04-05T00:57:10.285Z,99283.16
2023-04-05T01:00:28.378Z,99278.61
2023-04-05T01:03:47.456Z,99286.32
2023-04-05T01:07:20.876Z,99275.72
2023-04-05T01:10:42.228Z,99271.16
2023-04-05T01:14:05.162Z,99277.49
2023-04-05T01:17:22.931Z,99279.14
2023-04-05T01:20:43.802Z,99266.33
2023-04-05T01:24:10.654Z,99268.01
2023-04-05T01:27:33.798Z,99259.45
2023-04-05T01:30:54.633Z,99276.02
2023-04-05T01:34:17.286Z,99272.45
2023-04-05T01:37:38.232Z,99267.25
2023-04-05T01:40:55.340Z,99265.30
2023-04-05T01:44:11.911Z,99266.23
2023-04-05T01:47:28.391Z,99261.88
2023-04-05T01:50:44.876Z,99259.38
2023-04-05T01:54:01.693Z,99263.73
2023-04-05T01:57:18.142Z,99261.03
2023-04-05T02:00:34.946Z,99265.61
2023-04-05T02:03:51.614Z,99259.65
2023-04-05T02:07:08.457Z,99250.06
2023-04-05T02:10:25.909Z,99255.27
2023-04-05T02:13:43.230Z,99257.97
2023-04-05T02:16:59.879Z,99256.92
2023-04-05T02:20:19.533Z,99261.66
2023-04-05T02:23:37.781Z,99252.91
2023-04-05T02:26:54.307Z,99256.63
2023-04-05T02:30:13.732Z,99252.23
2023-04-05T02:33:32.035Z,99249.63
2023-04-05T02:36:48.447Z,99246.94
2023-04-05T02:40:06.458Z,99249.06
2023-04-05T02:43:22.937Z,99247.39
2023-04-05T02:46:39.394Z,99246.37
2023-04-05T02:49:55.715Z,99235.81
2023-04-05T02:53:12.672Z,99246.72
2023-04-05T02:56:30.212Z,99234.17
2023-04-05T02:59:48.101Z,99243.56
2023-04-05T03:03:04.631Z,99239.84
2023-04-05T03:06:23.456Z,99243.46
2023-04-05T03:09:40.750Z,99230.47
2023-04-05T03:12:58.340Z,99237.53
2023-04-05T03:16:17.044Z,99235.00
2023-04-05T03:19:34.345Z,99232.03
2023-04-05T03:22:53.037Z,99230.16
2023-04-05T03:26:11.325Z,99236.94
2023-04-05T03:29:28.564Z,99234.94
2023-04-05T03:32:45.112Z,99238.17
2023-04-05T03:36:03.627Z,99234.17
2023-04-05T03:39:22.593Z,99238.81
2023-04-05T03:42:39.587Z,99230.91
2023-04-05T03:45:56.214Z,99232.14
2023-04-05T03:49:14.532Z,99240.52
2023-04-05T03:52:30.950Z,99238.01
2023-04-05T03:55:50.675Z,99233.63
2023-04-05T03:59:08.655Z,99238.71
2023-04-05T04:02:25.438Z,99226.64
2023-04-05T04:05:42.851Z,99227.09
2023-04-05T04:08:59.839Z,99228.67
2023-04-05T04:12:18.450Z,99229.59
2023-04-05T04:15:36.856Z,99234.53
2023-04-05T04:19:00.673Z,99236.27
2023-04-05T04:22:24.720Z,99244.06
2023-04-05T04:25:45.114Z,99241.22
2023-04-05T04:29:07.804Z,99242.89
2023-04-05T04:32:28.062Z,99243.46
2023-04-05T04:35:54.518Z,99248.75
2023-04-05T04:39:23.910Z,99246.16
2023-04-05T04:42:55.682Z,99249.23
2023-04-05T04:46:19.384Z,99249.79
2023-04-05T04:49:46.384Z,99250.65
2023-04-05T04:53:18.535Z,99250.03
2023-04-05T04:56:48.833Z,99249.27
2023-04-05T05:00:23.854Z,99244.55
2023-04-05T05:03:54.569Z,99248.20
2023-04-05T05:07:12.036Z,99252.67
2023-04-05T05:10:29.158Z,99234.45
2023-04-05T05:13:51.203Z,99244.13
2023-04-05T05:17:07.659Z,99247.48
2023-04-05T05:20:24.987Z,99252.93
2023-04-05T05:23:41.730Z,99252.17
2023-04-05T05:26:58.162Z,99248.63
2023-04-05T05:30:17.612Z,99252.18
2023-04-05T05:33:34.118Z,99253.00
2023-04-05T05:36:53.050Z,99253.59
2023-04-05T05:40:11.159Z,99256.95
2023-04-05T05:43:27.410Z,99255.30
2023-04-05T05:46:43.903Z,99266.36
2023-04-05T05:50:00.370Z,99256.23
2023-04-05T05:53:17.031Z,99264.78
2023-04-05T05:56:34.323Z,99260.39
2023-04-05T06:06:04.138Z,99261.28
2023-04-05T06:09:21.299Z,99265.88
2023-04-05T06:12:38.964Z,99263.28
2023-04-05T06:15:56.687Z,99273.41
2023-04-05T06:19:13.276Z,99272.59
2023-04-05T06:22:29.770Z,99272.28
2023-04-05T06:25:47.207Z,99266.10
2023-04-05T06:29:03.899Z,99270.61
2023-04-05T06:32:20.422Z,99268.84
2023-04-05T06:35:37.178Z,99273.80
2023-04-05T06:38:53.773Z,99275.58
2023-04-05T06:42:10.434Z,99275.73
2023-04-05T06:48:35.467Z,99273.23
2023-04-05T06:51:51.823Z,99284.59
2023-04-05T06:55:09.122Z,99281.07
2023-04-05T06:58:25.568Z,99277.66
2023-04-05T07:01:42.068Z,99280.96
2023-04-05T07:05:00.953Z,99282.10
2023-04-05T07:08:17.763Z,99291.09
2023-04-05T07:11:34.152Z,99287.69
2023-04-05T07:14:50.717Z,99273.71
2023-04-05T07:18:07.792Z,99276.13
2023-04-05T07:21:24.799Z,99282.44
2023-04-05T07:24:41.509Z,99285.12
2023-04-05T07:27:58.423Z,99286.66
2023-04-05T07:31:15.857Z,99285.83
2023-04-05T07:34:32.692Z,99284.95
2023-04-05T07:37:49.170Z,99281.98
2023-04-05T07:41:05.602Z,99278.57
2023-04-05T07:44:22.049Z,99289.17
2023-04-05T07:50:43.283Z,99293.30
2023-04-05T07:54:01.769Z,99290.89
2023-04-05T07:57:18.223Z,99293.72
2023-04-05T08:00:34.946Z,99286.95
2023-04-05T08:03:51.458Z,99294.53
2023-04-05T08:07:07.922Z,99284.94
2023-04-05T08:10:24.621Z,99281.77
2023-04-05T08:13:42.740Z,99285.75
2023-04-05T08:16:59.213Z,99280.51
2023-04-05T08:20:19.937Z,99273.28
2023-04-05T08:23:36.504Z,99269.03
2023-04-05T08:26:52.902Z,99272.12
2023-04-05T08:30:09.821Z,99272.46
2023-04-05T08:33:27.215Z,99277.80
2023-04-05T08:36:43.714Z,99276.30
2023-04-05T08:40:00.482Z,99262.20
2023-04-05T08:43:22.955Z,99269.58
2023-04-05T08:49:42.739Z,99276.11
2023-04-05T08:52:59.273Z,99259.66
2023-04-05T08:56:17.940Z,99261.16
2023-04-05T08:59:36.328Z,99252.86
2023-04-05T09:02:57.066Z,99251.11
2023-04-05T09:06:17.125Z,99249.55
2023-04-05T09:09:36.528Z,99249.08
2023-04-05T09:12:53.121Z,99255.39
2023-04-05T09:16:10.987Z,99250.39
2023-04-05T09:19:27.498Z,99250.17
2023-04-05T09:22:52.328Z,99251.14
2023-04-05T09:26:09.003Z,99247.05
2023-04-05T09:29:38.992Z,99248.81
2023-04-05T09:32:58.798Z,99249.66
2023-04-05T09:36:16.415Z,99252.97
2023-04-05T09:39:38.828Z,99246.22
2023-04-05T09:42:56.273Z,99247.59
2023-04-05T09:46:13.243Z,99243.98
2023-04-05T09:49:41.468Z,99240.25
2023-04-05T09:52:59.385Z,99237.61
2023-04-05T09:56:20.761Z,99240.27
2023-04-05T09:59:37.676Z,99244.42
2023-04-05T10:02:56.432Z,99240.66
2023-04-05T10:06:13.581Z,99237.35
2023-04-05T10:09:30.374Z,99230.55
2023-04-05T10:12:48.918Z,99230.26
2023-04-05T10:19:11.863Z,99223.74
2023-04-05T10:22:30.321Z,99220.55
2023-04-05T10:25:53.776Z,99221.68
2023-04-05T10:29:15.916Z,99219.12
2023-04-05T10:32:39.851Z,99211.63
2023-04-05T10:36:09.477Z,99199.02
2023-04-05T10:39:26.715Z,99205.42
2023-04-05T10:42:48.725Z,99208.55
2023-04-05T10:52:12.148Z,99205.66
2023-04-05T10:55:29.201Z,99217.73
2023-04-05T10:58:47.426Z,99206.99
2023-04-05T11:02:04.999Z,99210.31
2023-04-05T11:05:40.799Z,99214.22
2023-04-05T11:09:01.336Z,99203.55
2023-04-05T11:12:17.958Z,99202.84
2023-04-05T11:15:44.175Z,99195.09
2023-04-05T11:19:02.450Z,99202.42
2023-04-05T11:22:19.600Z,99208.66
2023-04-05T11:25:36.318Z,99205.76
2023-04-05T11:28:52.988Z,99204.80
2023-04-05T11:32:15.504Z,99204.95
2023-04-05T11:35:32.109Z,99204.23
2023-04-05T11:38:50.881Z,99197.45
2023-04-05T11:42:13.270Z,99200.64
2023-04-05T11:45:32.277Z,99201.20
2023-04-05T11:49:25.510Z,99193.31
2023-04-05T11:52:42.163Z,99199.53
2023-04-05T11:56:00.373Z,99197.70
2023-04-05T11:59:21.072Z,99202.56
2023-04-05T12:02:41.654Z,99186.22
2023-04-05T12:06:00.022Z,99197.98
2023-04-05T12:09:18.595Z,99189.68
2023-04-05T12:12:35.687Z,99189.66
2023-04-05T12:19:00.461Z,99181.94
2023-04-05T12:22:17.263Z,99180.46
2023-04-05T12:25:34.196Z,99185.75
2023-04-05T12:29:11.546Z,99188.29
2023-04-05T12:35:36.157Z,99191.58
2023-04-05T12:38:52.657Z,99187.61
2023-04-05T12:42:10.355Z,99186.78
2023-04-05T12:45:28.763Z,99183.18
2023-04-05T12:48:48.957Z,99187.89
2023-04-05T12:52:09.706Z,99183.59
2023-04-05T12:55:26.966Z,99183.19
2023-04-05T12:58:46.887Z,99181.53
2023-04-05T13:02:03.432Z,99177.13
2023-04-05T13:05:20.393Z,99182.09
2023-04-05T13:08:36.944Z,99175.45
2023-04-05T13:11:53.747Z,99185.42
2023-04-05T13:15:10.925Z,99181.41
2023-04-05T13:18:27.126Z,99174.34
2023-04-05T13:21:43.436Z,99173.38
2023-04-05T13:24:59.824Z,99174.05
2023-04-05T13:28:18.436Z,99170.30
2023-04-05T13:31:34.971Z,99173.22
2023-04-05T13:34:51.527Z,99168.80
2023-04-05T13:38:07.980Z,99175.59
2023-04-05T13:41:24.529Z,99168.65
2023-04-05T13:44:40.819Z,99170.46
2023-04-05T13:47:57.463Z,99176.53
2023-04-05T13:51:13.961Z,99170.59
2023-04-05T13:54:30.429Z,99181.11
2023-04-05T13:57:46.774Z,99177.67
2023-04-05T14:01:03.573Z,99166.03
2023-04-05T14:04:19.966Z,99170.33
2023-04-05T14:07:37.336Z,99168.66
2023-04-05T14:10:53.939Z,99167.84
2023-04-05T14:14:11.026Z,99164.11
2023-04-05T14:17:27.598Z,99172.12
2023-04-05T14:20:44.465Z,99170.03
2023-04-05T14:24:02.319Z,99165.63
2023-04-05T14:27:19.040Z,99167.56
2023-04-05T14:30:36.329Z,99168.11
2023-04-05T14:33:55.122Z,99167.84
2023-04-05T14:37:11.551Z,99170.03
2023-04-05T14:40:28.292Z,99166.30
2023-04-05T14:43:45.157Z,99169.92
2023-04-05T14:50:05.061Z,99164.66
2023-04-05T14:53:22.325Z,99162.41
2023-04-05T14:56:39.113Z,99167.98
2023-04-05T14:59:55.616Z,99156.90
2023-04-05T15:06:17.338Z,99170.70
2023-04-05T15:09:34.345Z,99153.83
2023-04-05T15:12:51.170Z,99156.02
2023-04-05T15:16:08.358Z,99156.70
2023-04-05T15:23:03.583Z,99158.63
2023-04-05T15:26:22.705Z,99154.19
2023-04-05T15:29:40.304Z,99159.44
2023-04-05T15:32:57.048Z,99158.05
2023-04-05T15:36:14.974Z,99159.30
2023-04-05T15:39:32.476Z,99169.52
2023-04-05T15:42:49.682Z,99168.81
2023-04-05T15:46:06.210Z,99167.44
2023-04-05T15:49:22.682Z,99171.02
2023-04-05T15:52:39.272Z,99168.67
2023-04-05T15:55:55.612Z,99167.83
2023-04-05T15:59:12.285Z,99171.55
2023-04-05T16:02:29.025Z,99168.92
2023-04-05T16:05:45.766Z,99174.84
2023-04-05T16:09:04.292Z,99172.36
2023-04-05T16:12:21.316Z,99171.65
2023-04-05T16:15:38.092Z,99173.02
2023-04-05T16:18:55.823Z,99170.40
2023-04-05T16:22:12.450Z,99167.06
2023-04-05T16:25:29.788Z,99167.84
2023-04-05T16:28:47.462Z,99170.46
2023-04-05T16:32:04.669Z,99166.58
2023-04-05T16:35:21.437Z,99170.02
2023-04-05T16:38:38.452Z,99163.57
2023-04-05T16:41:55.177Z,99169.39
2023-04-05T16:45:13.349Z,99172.55
2023-04-05T16:48:33.648Z,99180.23
2023-04-05T16:51:51.421Z,99174.84
2023-04-05T16:55:07.903Z,99181.63
2023-04-05T16:58:24.811Z,99169.92
2023-04-05T17:01:41.540Z,99177.80
2023-04-05T17:04:58.564Z,99183.86
2023-04-05T17:08:15.349Z,99178.99
2023-04-05T17:11:31.745Z,99185.09
2023-04-05T17:14:48.592Z,99183.30
2023-04-05T17:21:08.140Z,99189.63
2023-04-05T17:24:28.266Z,99188.11
2023-04-05T17:27:45.119Z,99184.52
2023-04-05T17:31:02.287Z,99189.91
2023-04-05T17:34:18.750Z,99193.49
2023-04-05T17:37:36.183Z,99187.39
2023-04-05T17:40:53.196Z,99190.87
2023-04-05T17:44:11.309Z,99196.80
2023-04-05T17:47:28.980Z,99201.69
2023-04-05T17:50:47.502Z,99205.40
2023-04-05T17:54:04.814Z,99201.69
2023-04-05T17:57:23.161Z,99204.75
2023-04-05T18:00:40.011Z,99202.02
2023-04-05T18:03:56.791Z,99209.05
2023-04-05T18:07:14.059Z,99210.72
2023-04-05T18:10:30.968Z,99213.06
2023-04-05T18:13:48.513Z,99210.34
2023-04-05T18:17:05.455Z,99205.02
2023-04-05T18:20:22.608Z,99218.08
2023-04-05T18:23:39.278Z,99209.25
2023-04-05T18:26:55.696Z,99207.58
2023-04-05T18:30:14.647Z,99206.80
2023-04-05T18:36:36.994Z,99206.80
2023-04-05T18:39:54.362Z,99212.42
2023-04-05T18:43:10.782Z,99209.98
2023-04-05T18:46:29.804Z,99210.05
2023-04-05T18:49:46.926Z,99205.13
2023-04-05T18:53:03.962Z,99208.84
2023-04-05T18:56:22.944Z,99201.53
2023-04-05T18:59:39.635Z,99203.47
2023-04-05T19:02:56.547Z,99200.63
2023-04-05T19:06:13.435Z,99202.43
2023-04-05T19:09:30.710Z,99203.06
2023-04-05T19:12:48.475Z,99207.91
2023-04-05T19:16:07.918Z,99204.11
2023-04-05T19:19:25.140Z,99201.63
2023-04-05T19:22:42.765Z,99198.05
2023-04-05T19:26:01.003Z,99196.19
2023-04-05T19:29:17.734Z,99191.13
2023-04-05T19:32:34.409Z,99196.14
2023-04-05T19:35:51.452Z,99197.81
2023-04-05T19:39:08.474Z,99194.34
2023-04-05T19:42:26.157Z,99193.63
2023-04-05T19:45:43.178Z,99187.02
2023-04-05T19:48:59.950Z,99190.90
2023-04-05T19:52:21.789Z,99192.00
2023-04-05T19:55:41.878Z,99191.77
2023-04-05T19:59:02.262Z,99185.80
2023-04-05T20:02:25.752Z,99180.56
2023-04-05T20:06:13.578Z,99183.77
2023-04-05T20:09:32.276Z,99175.22
2023-04-05T20:12:48.780Z,99180.69
2023-04-05T20:16:05.351Z,99173.19
2023-04-05T20:19:21.960Z,99176.66
2023-04-05T20:22:40.100Z,99179.16
2023-04-05T20:25:58.106Z,99173.55
2023-04-05T20:29:17.027Z,99176.35
2023-04-05T20:32:34.459Z,99188.02
2023-04-05T20:35:51.535Z,99181.55
2023-04-05T20:39:10.845Z,99177.02
2023-04-05T20:42:27.549Z,99173.69
2023-04-05T20:45:44.587Z,99171.78
2023-04-05T20:49:02.737Z,99177.16
2023-04-05T20:52:19.945Z,99184.17
2023-04-05T20:55:36.602Z,99183.03
2023-04-05T20:58:55.195Z,99192.57
2023-04-05T21:02:11.754Z,99205.50
2023-04-05T21:05:28.496Z,99204.19
2023-04-05T21:08:47.570Z,99206.84
2023-04-05T21:12:05.042Z,99201.36
2023-04-05T21:15:21.713Z,99208.07
2023-04-05T21:18:38.525Z,99204.73
2023-04-05T21:21:55.465Z,99196.89
2023-04-05T21:25:13.395Z,99193.55
2023-04-05T21:28:29.911Z,99195.70
2023-04-05T21:31:46.567Z,99190.12
2023-04-05T21:35:03.021Z,99188.19
2023-04-05T21:38:19.667Z,99198.67
2023-04-05T21:41:36.121Z,99194.77
2023-04-05T21:44:52.738Z,99187.26
2023-04-05T21:51:12.422Z,99187.26
2023-04-05T21:54:29.091Z,99189.53
2023-04-05T21:57:45.489Z,99184.86
2023-04-05T22:01:02.407Z,99182.84
2023-04-05T22:04:18.864Z,99184.64
2023-04-05T22:07:35.426Z,99189.02
2023-04-05T22:10:52.039Z,99173.57
2023-04-05T22:14:09.037Z,99194.98
2023-04-05T22:17:25.449Z,99193.77
2023-04-05T22:20:42.017Z,99186.99
2023-04-05T22:23:58.414Z,99196.39
2023-04-05T22:27:14.959Z,99192.69
2023-04-05T22:30:42.880Z,99205.08
2023-04-05T22:33:50.160Z,99203.62
2023-04-05T22:37:06.866Z,99204.56
2023-04-05T22:40:25.937Z,99200.30
2023-04-05T22:43:42.501Z,99191.59
2023-04-05T22:46:59.181Z,99183.73
2023-04-05T22:50:18.459Z,99183.52
2023-04-05T22:53:35.176Z,99188.36
2023-04-05T22:56:51.988Z,99183.59
2023-04-05T23:00:09.006Z,99177.17
2023-04-05T23:03:25.458Z,99181.70
2023-04-05T23:06:41.977Z,99189.40
2023-04-05T23:09:58.481Z,99185.84
2023-04-05T23:13:16.874Z,99183.23
2023-04-05T23:16:33.286Z,99188.45
2023-04-05T23:19:49.808Z,99188.34
2023-04-05T23:23:06.666Z,99178.94
2023-04-05T23:26:23.246Z,99176.41
2023-04-05T23:29:39.812Z,99181.85
2023-04-05T23:32:56.559Z,99184.75
2023-04-05T23:36:14.783Z,99171.53
2023-04-05T23:39:33.362Z,99170.55
2023-04-05T23:42:49.688Z,99173.21
2023-04-05T23:46:06.161Z,99159.03
2023-04-05T23:49:22.503Z,99163.83
2023-04-05T23:52:39.293Z,99160.97
2023-04-05T23:55:58.280Z,99164.46
2023-04-05T23:59:14.917Z,99171.66
